地図

経路データ

SID SEASON NUMBER BASIN SUBBASIN NAME ISO_TIME NATURE LAT LON WMO_WIND WMO_PRES WMO_AGENCY TRACK_TYPE DIST2LAND LANDFALL IFLAG USA_AGENCY USA_ATCF_ID USA_LAT USA_LON USA_RECORD USA_STATUS USA_WIND USA_PRES USA_SSHS USA_R34_NE USA_R34_SE USA_R34_SW USA_R34_NW USA_R50_NE USA_R50_SE USA_R50_SW USA_R50_NW USA_R64_NE USA_R64_SE USA_R64_SW USA_R64_NW USA_POCI USA_ROCI USA_RMW USA_EYE TOKYO_LAT TOKYO_LON TOKYO_GRADE TOKYO_WIND TOKYO_PRES TOKYO_R50_DIR TOKYO_R50_LONG TOKYO_R50_SHORT TOKYO_R30_DIR TOKYO_R30_LONG TOKYO_R30_SHORT TOKYO_LAND CMA_LAT CMA_LON CMA_CAT CMA_WIND CMA_PRES HKO_LAT HKO_LON HKO_CAT HKO_WIND HKO_PRES NEWDELHI_LAT NEWDELHI_LON NEWDELHI_GRADE NEWDELHI_WIND NEWDELHI_PRES NEWDELHI_CI NEWDELHI_DP NEWDELHI_POCI REUNION_LAT REUNION_LON REUNION_TYPE REUNION_WIND REUNION_PRES REUNION_TNUM REUNION_CI REUNION_RMW REUNION_R34_NE REUNION_R34_SE REUNION_R34_SW REUNION_R34_NW REUNION_R50_NE REUNION_R50_SE REUNION_R50_SW REUNION_R50_NW REUNION_R64_NE REUNION_R64_SE REUNION_R64_SW REUNION_R64_NW BOM_LAT BOM_LON BOM_TYPE BOM_WIND BOM_PRES BOM_TNUM BOM_CI BOM_RMW BOM_R34_NE BOM_R34_SE BOM_R34_SW BOM_R34_NW BOM_R50_NE BOM_R50_SE BOM_R50_SW BOM_R50_NW BOM_R64_NE BOM_R64_SE BOM_R64_SW BOM_R64_NW BOM_ROCI BOM_POCI BOM_EYE BOM_POS_METHOD BOM_PRES_METHOD NADI_LAT NADI_LON NADI_CAT NADI_WIND NADI_PRES WELLINGTON_LAT WELLINGTON_LON WELLINGTON_WIND WELLINGTON_PRES DS824_LAT DS824_LON DS824_STAGE DS824_WIND DS824_PRES TD9636_LAT TD9636_LON TD9636_STAGE TD9636_WIND TD9636_PRES TD9635_LAT TD9635_LON TD9635_WIND TD9635_PRES TD9635_ROCI NEUMANN_LAT NEUMANN_LON NEUMANN_CLASS NEUMANN_WIND NEUMANN_PRES MLC_LAT MLC_LON MLC_CLASS MLC_WIND MLC_PRES USA_GUST BOM_GUST BOM_GUST_PER REUNION_GUST REUNION_GUST_PER USA_SEAHGT USA_SEARAD_NE USA_SEARAD_SE USA_SEARAD_SW USA_SEARAD_NW STORM_SPEED STORM_DIR
1930337N06142 1930 57 WP MM NOT_NAMED 1930-12-03 10:00:00 NR 6.40000 141.500 main 968 964 __________O___ -1 6.40000 141.500 7 6 291
1930337N06142 1930 57 WP MM NOT_NAMED 1930-12-03 12:00:00 NR 6.47147 141.311 main 970 963 __________P___ -1 6.47147 141.311 7 6 291
1930337N06142 1930 57 WP MM NOT_NAMED 1930-12-03 15:00:00 NR 6.58308 141.011 main 970 963 __________P___ -1 6.58308 141.011 7 7 290
1930337N06142 1930 57 WP MM NOT_NAMED 1930-12-03 18:00:00 NR 6.70616 140.668 main 970 967 __________P___ -1 6.70616 140.668 7 8 289
1930337N06142 1930 57 WP MM NOT_NAMED 1930-12-03 21:00:00 NR 6.84760 140.257 main 969 975 __________P___ -1 6.84760 140.257 7 9 289
1930337N06142 1930 57 WP MM NOT_NAMED 1930-12-03 22:00:00 NR 6.90000 140.100 main 975 973 __________O___ -1 6.90000 140.100 7 11 288
1930337N06142 1930 57 WP MM NOT_NAMED 1930-12-04 00:00:00 NR 7.01353 139.753 main 975 962 __________P___ -1 7.01353 139.753 7 12 288
1930337N06142 1930 57 WP MM NOT_NAMED 1930-12-04 03:00:00 NR 7.20264 139.158 main 968 959 __________P___ -1 7.20264 139.158 7 13 287
1930337N06142 1930 57 WP MM NOT_NAMED 1930-12-04 06:00:00 NR 7.40887 138.487 main 963 956 __________P___ -1 7.40887 138.487 7 15 287
1930337N06142 1930 57 WP MM NOT_NAMED 1930-12-04 09:00:00 NR 7.62615 137.755 main 961 958 __________P___ -1 7.62615 137.755 7 15 287
1930337N06142 1930 57 WP MM NOT_NAMED 1930-12-04 10:00:00 NR 7.70000 137.500 main 964 960 __________O___ -1 7.70000 137.500 3 16 286
1930337N06142 1930 57 WP MM NOT_NAMED 1930-12-04 12:00:00 NR 7.84434 136.985 main 965 970 __________P___ -1 7.84434 136.985 3 16 286
1930337N06142 1930 57 WP MM NOT_NAMED 1930-12-04 15:00:00 NR 8.06714 136.167 main 988 961 __________P___ -1 8.06714 136.167 3 17 285
1930337N06142 1930 57 WP MM NOT_NAMED 1930-12-04 18:00:00 NR 8.29463 135.322 main 961 875 __________P___ -1 8.29463 135.322 3 17 285
1930337N06142 1930 57 WP MM NOT_NAMED 1930-12-04 21:00:00 NR 8.52375 134.477 main 875 843 __________P___ -1 8.52375 134.477 3 17 285
1930337N06142 1930 57 WP MM NOT_NAMED 1930-12-04 22:00:00 NR 8.60000 134.200 main 843 790 __________O___ -1 8.60000 134.200 4 17 286
1930337N06142 1930 57 WP MM NOT_NAMED 1930-12-05 00:00:00 NR 8.74965 133.664 main 790 708 __________P___ -1 8.74965 133.664 4 16 286
1930337N06142 1930 57 WP MM NOT_NAMED 1930-12-05 03:00:00 NR 8.97443 132.872 main 708 628 __________P___ -1 8.97443 132.872 4 16 286
1930337N06142 1930 57 WP MM NOT_NAMED 1930-12-05 06:00:00 NR 9.19952 132.099 main 628 551 __________P___ -1 9.19952 132.099 4 16 287
1930337N06142 1930 57 WP MM NOT_NAMED 1930-12-05 09:00:00 NR 9.42484 131.346 main 551 533 __________P___ -1 9.42484 131.346 4 15 287
1930337N06142 1930 57 WP MM NOT_NAMED 1930-12-05 10:00:00 NR 9.50000 131.100 main 533 491 __________O___ -1 9.50000 131.100 4 14 287
1930337N06142 1930 57 WP MM NOT_NAMED 1930-12-05 12:00:00 NR 9.62461 130.685 main 491 432 __________P___ -1 9.62461 130.685 4 13 287
1930337N06142 1930 57 WP MM NOT_NAMED 1930-12-05 15:00:00 NR 9.81161 130.084 main 432 362 __________P___ -1 9.81161 130.084 4 13 288
1930337N06142 1930 57 WP MM NOT_NAMED 1930-12-05 18:00:00 NR 10.0249 129.427 main 362 290 __________P___ -1 10.0249 129.427 4 15 288
1930337N06142 1930 57 WP MM NOT_NAMED 1930-12-05 21:00:00 NR 10.2934 128.619 main 290 276 __________P___ -1 10.2934 128.619 4 18 289
1930337N06142 1930 57 WP MM NOT_NAMED 1930-12-05 22:00:00 NR 10.4000 128.300 main 266 188 __________O___ -1 10.4000 128.300 4 23 291
1930337N06142 1930 57 WP MM NOT_NAMED 1930-12-06 00:00:00 NR 10.7077 127.532 main 188 49 __________P___ -1 10.7077 127.532 4 27 292
1930337N06142 1930 57 WP MM NOT_NAMED 1930-12-06 03:00:00 NR 11.2265 126.209 main 49 0 __________P___ -1 11.2265 126.209 4 29 291
1930337N06142 1930 57 WP MM NOT_NAMED 1930-12-06 06:00:00 NR 11.7272 124.761 main 15 0 __________P___ -1 11.7272 124.761 4 30 287
1930337N06142 1930 57 WP MM NOT_NAMED 1930-12-06 09:00:00 NR 12.1132 123.283 main 0 10 __________P___ -1 12.1132 123.283 4 30 284
1930337N06142 1930 57 WP MM NOT_NAMED 1930-12-06 10:00:00 NR 12.2000 122.800 main 43 40 __________O___ -1 12.2000 122.800 4 29 276
1930337N06142 1930 57 WP MM NOT_NAMED 1930-12-06 12:00:00 NR 12.2597 121.825 main 40 0 __________P___ -1 12.2597 121.825 4 28 270
1930337N06142 1930 57 WP MM NOT_NAMED 1930-12-06 15:00:00 NR 12.2107 120.381 main 68 78 __________P___ -1 12.2107 120.381 4 27 266
1930337N06142 1930 57 WP MM NOT_NAMED 1930-12-06 18:00:00 NR 12.0550 119.046 main 104 95 __________P___ -1 12.0550 119.046 4 24 262
1930337N06142 1930 57 WP MM NOT_NAMED 1930-12-06 21:00:00 NR 11.8611 117.915 main 181 181 __________P___ -1 11.8611 117.915 4 22 260
1930337N06142 1930 57 WP MM NOT_NAMED 1930-12-06 22:00:00 NR 11.8000 117.600 main 207 207 __________O___ -1 11.8000 117.600 4 16 261
1930337N06142 1930 57 WP MM NOT_NAMED 1930-12-07 00:00:00 NR 11.7306 117.107 main 256 256 __________P___ -1 11.7306 117.107 4 12 260
1930337N06142 1930 57 WP MM NOT_NAMED 1930-12-07 03:00:00 NR 11.6290 116.581 main 293 293 __________P___ -1 11.6290 116.581 4 9 257
1930337N06142 1930 57 WP MM NOT_NAMED 1930-12-07 06:00:00 NR 11.5301 116.217 main 311 311 __________P___ -1 11.5301 116.217 4 7 253
1930337N06142 1930 57 WP MM NOT_NAMED 1930-12-07 09:00:00 NR 11.4325 115.908 main 322 322 __________P___ -1 11.4325 115.908 4 6 252
1930337N06142 1930 57 WP MM NOT_NAMED 1930-12-07 10:00:00 NR 11.4000 115.800 main 329 329 __________O___ -1 11.4000 115.800 4 7 254
1930337N06142 1930 57 WP MM NOT_NAMED 1930-12-07 12:00:00 NR 11.3346 115.557 main 336 344 __________P___ -1 11.3346 115.557 4 8 256
1930337N06142 1930 57 WP MM NOT_NAMED 1930-12-07 15:00:00 NR 11.2356 115.136 main 368 368 __________P___ -1 11.2356 115.136 4 9 257
1930337N06142 1930 57 WP MM NOT_NAMED 1930-12-07 18:00:00 NR 11.1353 114.666 main 393 402 __________P___ -1 11.1353 114.666 4 10 258
1930337N06142 1930 57 WP MM NOT_NAMED 1930-12-07 21:00:00 NR 11.0340 114.168 main 431 440 __________P___ -1 11.0340 114.168 4 10 258
1930337N06142 1930 57 WP MM NOT_NAMED 1930-12-07 22:00:00 NR 11.0000 114.000 main 449 __________O___ -1 11.0000 114.000 7 10 258

デジタル台風データ・検索

IBTrACS Databaseについて

本データベースは、米国NOAAが公開する1842年以降の世界の熱帯低気圧のベストトラックデータアーカイブInternational Best Track Archive for Climate Stewardship (IBTrACS)を、ウェブで閲覧しやすい形式に変換したものです。

最終更新日:2021-11-26